sensor_id;sensor_type;location;lat;lon;timestamp;pressure;altitude;pressure_sealevel;temperature;humidity
10948;BME280;5526;42.070;24.752;2023-01-09T00:01:16;99499.16;;;3.95;90.93
10948;BME280;5526;42.070;24.752;2023-01-09T00:03:44;99500.75;;;3.96;90.83
10948;BME280;5526;42.070;24.752;2023-01-09T00:06:11;99499.16;;;4.08;90.54
10948;BME280;5526;42.070;24.752;2023-01-09T00:08:40;99501.19;;;4.13;90.08
10948;BME280;5526;42.070;24.752;2023-01-09T00:11:08;99491.75;;;4.18;89.86
10948;BME280;5526;42.070;24.752;2023-01-09T00:13:36;99488.34;;;4.24;89.91
10948;BME280;5526;42.070;24.752;2023-01-09T00:16:03;99492.34;;;4.27;89.56
10948;BME280;5526;42.070;24.752;2023-01-09T00:18:31;99497.16;;;4.23;89.99
10948;BME280;5526;42.070;24.752;2023-01-09T00:20:59;99492.75;;;4.24;89.89
10948;BME280;5526;42.070;24.752;2023-01-09T00:23:26;99484.72;;;4.32;89.89
10948;BME280;5526;42.070;24.752;2023-01-09T00:26:02;99492.34;;;4.40;89.02
10948;BME280;5526;42.070;24.752;2023-01-09T00:28:29;99493.34;;;4.39;88.79
10948;BME280;5526;42.070;24.752;2023-01-09T00:30:58;99496.56;;;4.34;88.40
10948;BME280;5526;42.070;24.752;2023-01-09T00:33:28;99499.19;;;4.34;88.05
10948;BME280;5526;42.070;24.752;2023-01-09T00:35:56;99490.94;;;4.24;87.92
10948;BME280;5526;42.070;24.752;2023-01-09T00:38:23;99493.75;;;4.23;87.88
10948;BME280;5526;42.070;24.752;2023-01-09T00:40:51;99496.94;;;4.18;87.89
10948;BME280;5526;42.070;24.752;2023-01-09T00:43:22;99494.56;;;4.17;87.80
10948;BME280;5526;42.070;24.752;2023-01-09T00:45:50;99492.16;;;4.15;87.69
10948;BME280;5526;42.070;24.752;2023-01-09T00:48:20;99488.53;;;4.16;87.54
10948;BME280;5526;42.070;24.752;2023-01-09T00:50:52;99481.94;;;4.14;87.68
10948;BME280;5526;42.070;24.752;2023-01-09T00:53:22;99477.75;;;4.13;87.33
10948;BME280;5526;42.070;24.752;2023-01-09T00:55:51;99476.31;;;4.04;87.73
10948;BME280;5526;42.070;24.752;2023-01-09T00:58:20;99477.72;;;4.06;87.43
10948;BME280;5526;42.070;24.752;2023-01-09T01:00:48;99472.94;;;4.03;87.86
10948;BME280;5526;42.070;24.752;2023-01-09T01:03:15;99473.72;;;4.04;87.86
10948;BME280;5526;42.070;24.752;2023-01-09T01:05:42;99466.72;;;4.11;87.94
10948;BME280;5526;42.070;24.752;2023-01-09T01:08:27;99473.50;;;4.12;87.78
10948;BME280;5526;42.070;24.752;2023-01-09T01:10:54;99466.91;;;4.09;87.76
10948;BME280;5526;42.070;24.752;2023-01-09T01:13:23;99464.72;;;4.13;87.45
10948;BME280;5526;42.070;24.752;2023-01-09T01:15:50;99463.09;;;4.12;87.46
10948;BME280;5526;42.070;24.752;2023-01-09T01:18:18;99426.63;;;3.79;87.72
10948;BME280;5526;42.070;24.752;2023-01-09T01:20:45;99456.06;;;3.67;89.76
10948;BME280;5526;42.070;24.752;2023-01-09T01:23:12;99457.22;;;3.58;90.45
10948;BME280;5526;42.070;24.752;2023-01-09T01:25:40;99453.38;;;3.34;91.22
10948;BME280;5526;42.070;24.752;2023-01-09T01:28:08;99453.75;;;3.25;92.04
10948;BME280;5526;42.070;24.752;2023-01-09T01:30:39;99447.47;;;3.06;93.27
10948;BME280;5526;42.070;24.752;2023-01-09T01:33:07;99435.50;;;3.05;93.26
10948;BME280;5526;42.070;24.752;2023-01-09T01:35:35;99424.19;;;2.85;94.04
10948;BME280;5526;42.070;24.752;2023-01-09T01:38:02;99430.59;;;2.89;94.65
10948;BME280;5526;42.070;24.752;2023-01-09T01:40:30;99421.63;;;2.92;94.76
10948;BME280;5526;42.070;24.752;2023-01-09T01:42:57;99431.00;;;2.86;95.16
10948;BME280;5526;42.070;24.752;2023-01-09T01:45:25;99421.22;;;2.95;94.82
10948;BME280;5526;42.070;24.752;2023-01-09T01:47:58;99410.72;;;3.09;93.93
10948;BME280;5526;42.070;24.752;2023-01-09T01:50:29;99425.34;;;3.23;92.91
10948;BME280;5526;42.070;24.752;2023-01-09T01:53:06;99422.94;;;3.22;92.10
10948;BME280;5526;42.070;24.752;2023-01-09T01:55:38;99413.91;;;3.24;92.23
10948;BME280;5526;42.070;24.752;2023-01-09T01:58:09;99414.16;;;3.23;91.61
10948;BME280;5526;42.070;24.752;2023-01-09T02:00:44;99412.97;;;3.32;91.67
10948;BME280;5526;42.070;24.752;2023-01-09T02:03:18;99410.94;;;3.34;91.17
10948;BME280;5526;42.070;24.752;2023-01-09T02:05:46;99407.13;;;3.30;90.58
10948;BME280;5526;42.070;24.752;2023-01-09T02:08:13;99412.78;;;3.33;90.49
10948;BME280;5526;42.070;24.752;2023-01-09T02:10:41;99404.78;;;3.35;90.60
10948;BME280;5526;42.070;24.752;2023-01-09T02:13:09;99403.78;;;3.36;90.63
10948;BME280;5526;42.070;24.752;2023-01-09T02:15:45;99390.97;;;3.34;89.92
10948;BME280;5526;42.070;24.752;2023-01-09T02:21:17;99397.91;;;3.14;90.30
10948;BME280;5526;42.070;24.752;2023-01-09T02:24:27;99395.50;;;3.13;89.88
10948;BME280;5526;42.070;24.752;2023-01-09T02:27:07;99385.50;;;3.10;90.77
10948;BME280;5526;42.070;24.752;2023-01-09T02:32:44;99382.47;;;3.00;90.68
10948;BME280;5526;42.070;24.752;2023-01-09T02:35:22;99382.69;;;3.05;90.61
10948;BME280;5526;42.070;24.752;2023-01-09T02:38:01;99381.88;;;3.04;90.42
10948;BME280;5526;42.070;24.752;2023-01-09T02:40:34;99376.66;;;2.98;90.67
10948;BME280;5526;42.070;24.752;2023-01-09T02:43:05;99372.47;;;2.97;90.76
10948;BME280;5526;42.070;24.752;2023-01-09T02:45:33;99372.66;;;2.95;91.07
10948;BME280;5526;42.070;24.752;2023-01-09T02:48:02;99370.06;;;2.95;90.58
10948;BME280;5526;42.070;24.752;2023-01-09T02:50:34;99371.47;;;2.98;90.63
10948;BME280;5526;42.070;24.752;2023-01-09T02:56:15;99367.84;;;2.92;90.49
10948;BME280;5526;42.070;24.752;2023-01-09T02:59:00;99369.03;;;2.90;90.88
10948;BME280;5526;42.070;24.752;2023-01-09T03:01:35;99372.63;;;2.89;90.70
10948;BME280;5526;42.070;24.752;2023-01-09T03:04:17;99371.44;;;2.91;90.44
10948;BME280;5526;42.070;24.752;2023-01-09T03:06:51;99370.44;;;2.92;90.37
10948;BME280;5526;42.070;24.752;2023-01-09T03:09:23;99374.84;;;2.92;90.62
10948;BME280;5526;42.070;24.752;2023-01-09T03:11:56;99366.66;;;2.95;90.61
10948;BME280;5526;42.070;24.752;2023-01-09T03:14:25;99373.25;;;2.97;91.14
10948;BME280;5526;42.070;24.752;2023-01-09T03:16:59;99370.63;;;2.91;92.27
10948;BME280;5526;42.070;24.752;2023-01-09T03:19:30;99367.44;;;2.89;92.59
10948;BME280;5526;42.070;24.752;2023-01-09T03:21:59;99361.25;;;2.90;92.81
10948;BME280;5526;42.070;24.752;2023-01-09T03:24:26;99367.66;;;2.94;92.33
10948;BME280;5526;42.070;24.752;2023-01-09T03:26:54;99361.38;;;2.69;93.31
10948;BME280;5526;42.070;24.752;2023-01-09T03:29:21;99361.78;;;2.72;93.56
10948;BME280;5526;42.070;24.752;2023-01-09T03:31:48;99366.22;;;2.78;93.30
10948;BME280;5526;42.070;24.752;2023-01-09T03:34:16;99362.63;;;2.86;92.56
10948;BME280;5526;42.070;24.752;2023-01-09T03:36:44;99358.25;;;2.86;92.34
10948;BME280;5526;42.070;24.752;2023-01-09T03:39:12;99359.44;;;2.84;92.49
10948;BME280;5526;42.070;24.752;2023-01-09T03:41:39;99357.03;;;2.82;92.88
10948;BME280;5526;42.070;24.752;2023-01-09T03:44:06;99361.41;;;2.82;92.82
10948;BME280;5526;42.070;24.752;2023-01-09T03:46:33;99369.41;;;2.80;92.10
10948;BME280;5526;42.070;24.752;2023-01-09T03:49:01;99365.41;;;2.84;92.94
10948;BME280;5526;42.070;24.752;2023-01-09T03:51:28;99365.25;;;2.92;92.90
10948;BME280;5526;42.070;24.752;2023-01-09T03:53:57;99367.25;;;2.90;91.81
10948;BME280;5526;42.070;24.752;2023-01-09T03:56:24;99364.03;;;2.88;91.98
10948;BME280;5526;42.070;24.752;2023-01-09T03:58:51;99344.59;;;2.71;92.23
10948;BME280;5526;42.070;24.752;2023-01-09T04:01:19;99363.81;;;2.77;92.42
10948;BME280;5526;42.070;24.752;2023-01-09T04:03:46;99364.38;;;2.72;92.16
10948;BME280;5526;42.070;24.752;2023-01-09T04:06:13;99373.75;;;2.67;92.13
10948;BME280;5526;42.070;24.752;2023-01-09T04:08:41;99367.97;;;2.71;92.72
10948;BME280;5526;42.070;24.752;2023-01-09T04:11:09;99369.00;;;2.77;92.28
10948;BME280;5526;42.070;24.752;2023-01-09T04:13:37;99360.00;;;2.73;91.97
10948;BME280;5526;42.070;24.752;2023-01-09T04:16:04;99362.97;;;2.76;92.66
10948;BME280;5526;42.070;24.752;2023-01-09T04:18:32;99359.00;;;2.80;91.99
10948;BME280;5526;42.070;24.752;2023-01-09T04:20:59;99368.63;;;2.80;91.77
10948;BME280;5526;42.070;24.752;2023-01-09T04:23:26;99367.00;;;2.79;92.48
10948;BME280;5526;42.070;24.752;2023-01-09T04:25:54;99364.00;;;2.75;93.18
10948;BME280;5526;42.070;24.752;2023-01-09T04:28:22;99372.53;;;2.69;93.26
10948;BME280;5526;42.070;24.752;2023-01-09T04:30:50;99368.66;;;2.46;95.86
10948;BME280;5526;42.070;24.752;2023-01-09T04:33:17;99377.53;;;2.30;97.41
10948;BME280;5526;42.070;24.752;2023-01-09T04:35:44;99381.53;;;2.26;98.08
10948;BME280;5526;42.070;24.752;2023-01-09T04:38:12;99383.19;;;2.34;97.72
10948;BME280;5526;42.070;24.752;2023-01-09T04:40:39;99380.03;;;2.45;97.45
10948;BME280;5526;42.070;24.752;2023-01-09T04:43:06;99385.28;;;2.51;96.60
10948;BME280;5526;42.070;24.752;2023-01-09T04:45:35;99390.88;;;2.55;96.35
10948;BME280;5526;42.070;24.752;2023-01-09T04:48:03;99394.47;;;2.54;96.15
10948;BME280;5526;42.070;24.752;2023-01-09T04:50:30;99393.47;;;2.55;96.24
10948;BME280;5526;42.070;24.752;2023-01-09T04:52:57;99398.09;;;2.59;96.09
10948;BME280;5526;42.070;24.752;2023-01-09T04:55:25;99392.28;;;2.57;95.99
10948;BME280;5526;42.070;24.752;2023-01-09T04:57:52;99397.28;;;2.59;95.62
10948;BME280;5526;42.070;24.752;2023-01-09T05:00:19;99394.66;;;2.52;95.05
10948;BME280;5526;42.070;24.752;2023-01-09T05:02:48;99397.66;;;2.56;95.10
10948;BME280;5526;42.070;24.752;2023-01-09T05:05:16;99391.06;;;2.53;95.66
10948;BME280;5526;42.070;24.752;2023-01-09T05:07:43;99393.59;;;2.40;96.55
10948;BME280;5526;42.070;24.752;2023-01-09T05:10:10;99383.16;;;2.27;97.80
10948;BME280;5526;42.070;24.752;2023-01-09T05:12:38;99383.53;;;2.24;98.33
10948;BME280;5526;42.070;24.752;2023-01-09T05:15:07;99383.75;;;2.29;98.03
10948;BME280;5526;42.070;24.752;2023-01-09T05:17:34;99374.47;;;2.14;98.19
10948;BME280;5526;42.070;24.752;2023-01-09T05:20:04;99353.34;;;1.89;98.72
10948;BME280;5526;42.070;24.752;2023-01-09T05:22:31;99378.91;;;1.92;100.00
10948;BME280;5526;42.070;24.752;2023-01-09T05:24:59;99379.56;;;2.01;100.00
10948;BME280;5526;42.070;24.752;2023-01-09T05:27:26;99384.78;;;2.07;99.68
10948;BME280;5526;42.070;24.752;2023-01-09T05:29:55;99390.47;;;2.17;98.95
10948;BME280;5526;42.070;24.752;2023-01-09T05:32:22;99392.50;;;2.22;98.31
10948;BME280;5526;42.070;24.752;2023-01-09T05:34:49;99396.69;;;2.23;98.93
10948;BME280;5526;42.070;24.752;2023-01-09T05:37:18;99395.50;;;2.25;98.43
10948;BME280;5526;42.070;24.752;2023-01-09T05:39:45;99389.13;;;2.28;98.30
10948;BME280;5526;42.070;24.752;2023-01-09T05:42:13;99397.53;;;2.30;98.89
10948;BME280;5526;42.070;24.752;2023-01-09T05:44:40;99384.16;;;2.33;98.78
10948;BME280;5526;42.070;24.752;2023-01-09T05:47:07;99382.81;;;2.37;98.71
10948;BME280;5526;42.070;24.752;2023-01-09T05:49:35;99382.03;;;2.43;98.33
10948;BME280;5526;42.070;24.752;2023-01-09T05:52:02;99386.06;;;2.52;98.31
10948;BME280;5526;42.070;24.752;2023-01-09T05:54:31;99385.84;;;2.47;98.63
10948;BME280;5526;42.070;24.752;2023-01-09T05:56:58;99385.31;;;2.24;100.00
10948;BME280;5526;42.070;24.752;2023-01-09T05:59:26;99379.94;;;2.32;100.00
10948;BME280;5526;42.070;24.752;2023-01-09T06:01:53;99378.00;;;2.40;99.22
10948;BME280;5526;42.070;24.752;2023-01-09T06:04:20;99387.69;;;2.53;98.85
10948;BME280;5526;42.070;24.752;2023-01-09T06:06:48;99380.09;;;2.58;98.21
10948;BME280;5526;42.070;24.752;2023-01-09T06:09:15;99383.91;;;2.62;98.13
10948;BME280;5526;42.070;24.752;2023-01-09T06:11:44;99375.75;;;2.65;97.63
10948;BME280;5526;42.070;24.752;2023-01-09T06:14:11;99375.59;;;2.73;97.75
10948;BME280;5526;42.070;24.752;2023-01-09T06:16:38;99382.59;;;2.85;97.64
10948;BME280;5526;42.070;24.752;2023-01-09T06:19:05;99382.66;;;2.92;97.58
10948;BME280;5526;42.070;24.752;2023-01-09T06:21:33;99383.66;;;2.97;98.05
10948;BME280;5526;42.070;24.752;2023-01-09T06:24:00;99379.44;;;2.96;98.73
10948;BME280;5526;42.070;24.752;2023-01-09T06:26:28;99379.44;;;2.96;98.87
10948;BME280;5526;42.070;24.752;2023-01-09T06:28:56;99381.47;;;3.01;99.21
10948;BME280;5526;42.070;24.752;2023-01-09T06:31:25;99387.69;;;3.06;99.63
10948;BME280;5526;42.070;24.752;2023-01-09T06:33:53;99373.50;;;3.09;99.66
10948;BME280;5526;42.070;24.752;2023-01-09T06:36:20;99370.53;;;3.18;100.00
10948;BME280;5526;42.070;24.752;2023-01-09T06:38:47;99377.13;;;3.34;100.00
10948;BME280;5526;42.070;24.752;2023-01-09T06:41:15;99376.16;;;3.54;99.49
10948;BME280;5526;42.070;24.752;2023-01-09T06:43:42;99372.41;;;3.70;99.18
10948;BME280;5526;42.070;24.752;2023-01-09T06:46:11;99376.97;;;3.81;98.93
10948;BME280;5526;42.070;24.752;2023-01-09T06:48:38;99367.97;;;3.83;99.46
10948;BME280;5526;42.070;24.752;2023-01-09T06:51:05;99379.16;;;3.97;99.83
10948;BME280;5526;42.070;24.752;2023-01-09T06:53:33;99382.56;;;4.10;97.23
10948;BME280;5526;42.070;24.752;2023-01-09T06:56:00;99372.56;;;4.07;96.33
10948;BME280;5526;42.070;24.752;2023-01-09T06:58:28;99379.97;;;3.97;96.41
10948;BME280;5526;42.070;24.752;2023-01-09T07:00:57;99342.75;;;3.71;96.85
10948;BME280;5526;42.070;24.752;2023-01-09T07:03:26;99376.56;;;3.97;96.81
10948;BME280;5526;42.070;24.752;2023-01-09T07:05:53;99377.97;;;4.06;96.60
10948;BME280;5526;42.070;24.752;2023-01-09T07:08:20;99374.34;;;4.20;96.05
10948;BME280;5526;42.070;24.752;2023-01-09T07:10:48;99384.31;;;4.36;95.66
10948;BME280;5526;42.070;24.752;2023-01-09T07:13:15;99386.16;;;4.35;94.87
10948;BME280;5526;42.070;24.752;2023-01-09T07:15:42;99387.34;;;4.33;94.82
10948;BME280;5526;42.070;24.752;2023-01-09T07:18:09;99382.97;;;4.07;95.90
10948;BME280;5526;42.070;24.752;2023-01-09T07:20:39;99382.34;;;4.12;95.47
10948;BME280;5526;42.070;24.752;2023-01-09T07:23:06;99369.16;;;4.07;95.22
10948;BME280;5526;42.070;24.752;2023-01-09T07:25:34;99374.38;;;4.07;95.11
10948;BME280;5526;42.070;24.752;2023-01-09T07:28:01;99366.75;;;3.99;94.99
10948;BME280;5526;42.070;24.752;2023-01-09T07:30:29;99365.31;;;4.16;94.92
10948;BME280;5526;42.070;24.752;2023-01-09T07:32:58;99363.13;;;4.26;94.43
10948;BME280;5526;42.070;24.752;2023-01-09T07:35:25;99351.09;;;4.31;94.26
10948;BME280;5526;42.070;24.752;2023-01-09T07:37:54;99363.06;;;4.45;93.89
10948;BME280;5526;42.070;24.752;2023-01-09T07:40:21;99357.44;;;4.48;93.39
10948;BME280;5526;42.070;24.752;2023-01-09T07:42:51;99359.06;;;4.36;93.27
10948;BME280;5526;42.070;24.752;2023-01-09T07:45:18;99362.47;;;4.43;93.58
10948;BME280;5526;42.070;24.752;2023-01-09T07:47:46;99368.97;;;5.16;88.72
10948;BME280;5526;42.070;24.752;2023-01-09T07:50:13;99355.75;;;4.74;89.81
10948;BME280;5526;42.070;24.752;2023-01-09T07:52:43;99353.50;;;4.13;90.63
10948;BME280;5526;42.070;24.752;2023-01-09T07:55:12;99347.38;;;3.82;93.63
10948;BME280;5526;42.070;24.752;2023-01-09T07:57:39;99352.94;;;3.53;94.98
10948;BME280;5526;42.070;24.752;2023-01-09T08:00:08;99358.38;;;4.67;88.18
10948;BME280;5526;42.070;24.752;2023-01-09T08:02:37;99353.91;;;4.23;90.18
10948;BME280;5526;42.070;24.752;2023-01-09T08:05:05;99349.56;;;3.78;92.75
10948;BME280;5526;42.070;24.752;2023-01-09T08:07:33;99349.97;;;3.56;94.79
10948;BME280;5526;42.070;24.752;2023-01-09T08:10:00;99357.19;;;3.60;94.66
10948;BME280;5526;42.070;24.752;2023-01-09T08:12:29;99356.94;;;3.62;95.50
10948;BME280;5526;42.070;24.752;2023-01-09T08:14:56;99356.97;;;3.75;95.97
10948;BME280;5526;42.070;24.752;2023-01-09T08:17:24;99350.34;;;3.79;96.44
10948;BME280;5526;42.070;24.752;2023-01-09T08:19:51;99349.91;;;4.08;95.14
10948;BME280;5526;42.070;24.752;2023-01-09T08:22:18;99357.94;;;4.13;95.78
10948;BME280;5526;42.070;24.752;2023-01-09T08:24:45;99352.50;;;4.14;96.48
10948;BME280;5526;42.070;24.752;2023-01-09T08:27:13;99355.13;;;4.21;96.58
10948;BME280;5526;42.070;24.752;2023-01-09T08:29:41;99357.47;;;4.35;97.21
10948;BME280;5526;42.070;24.752;2023-01-09T08:32:09;99350.59;;;4.54;96.59
10948;BME280;5526;42.070;24.752;2023-01-09T08:34:36;99346.69;;;4.83;94.91
10948;BME280;5526;42.070;24.752;2023-01-09T08:37:03;99351.75;;;4.64;96.47
10948;BME280;5526;42.070;24.752;2023-01-09T08:39:30;99344.41;;;4.93;96.04
10948;BME280;5526;42.070;24.752;2023-01-09T08:41:58;99346.75;;;5.07;95.50
10948;BME280;5526;42.070;24.752;2023-01-09T08:44:43;99345.59;;;5.03;95.88
10948;BME280;5526;42.070;24.752;2023-01-09T08:47:27;99341.03;;;5.23;95.40
10948;BME280;5526;42.070;24.752;2023-01-09T08:49:58;99337.31;;;5.37;93.50
10948;BME280;5526;42.070;24.752;2023-01-09T08:52:25;99339.28;;;5.97;90.84
10948;BME280;5526;42.070;24.752;2023-01-09T08:54:55;99333.13;;;6.10;90.21
10948;BME280;5526;42.070;24.752;2023-01-09T08:57:22;99341.38;;;5.89;91.72
10948;BME280;5526;42.070;24.752;2023-01-09T08:59:51;99330.78;;;5.28;95.91
10948;BME280;5526;42.070;24.752;2023-01-09T09:02:18;99337.63;;;5.54;95.20
10948;BME280;5526;42.070;24.752;2023-01-09T09:04:45;99336.28;;;5.45;93.17
10948;BME280;5526;42.070;24.752;2023-01-09T09:07:16;99327.38;;;5.77;94.11
10948;BME280;5526;42.070;24.752;2023-01-09T09:09:45;99327.00;;;5.73;93.58
10948;BME280;5526;42.070;24.752;2023-01-09T09:12:13;99322.94;;;5.84;93.04
10948;BME280;5526;42.070;24.752;2023-01-09T09:14:40;99328.03;;;5.97;92.03
10948;BME280;5526;42.070;24.752;2023-01-09T09:17:26;99329.13;;;6.07;91.93
10948;BME280;5526;42.070;24.752;2023-01-09T09:19:53;99324.94;;;5.82;91.07
10948;BME280;5526;42.070;24.752;2023-01-09T09:22:20;99326.88;;;5.93;92.75
10948;BME280;5526;42.070;24.752;2023-01-09T09:24:47;99324.47;;;5.42;92.85
10948;BME280;5526;42.070;24.752;2023-01-09T09:27:15;99315.28;;;5.02;97.63
10948;BME280;5526;42.070;24.752;2023-01-09T09:29:42;99314.81;;;5.43;95.96
10948;BME280;5526;42.070;24.752;2023-01-09T09:32:09;99317.34;;;5.74;95.78
10948;BME280;5526;42.070;24.752;2023-01-09T09:34:38;99313.69;;;6.24;92.46
10948;BME280;5526;42.070;24.752;2023-01-09T09:37:05;99315.25;;;5.89;92.62
10948;BME280;5526;42.070;24.752;2023-01-09T09:39:33;99302.25;;;6.00;93.70
10948;BME280;5526;42.070;24.752;2023-01-09T09:42:18;99307.44;;;6.07;93.34
10948;BME280;5526;42.070;24.752;2023-01-09T09:45:15;99303.63;;;5.85;94.68
10948;BME280;5526;42.070;24.752;2023-01-09T09:47:51;99299.72;;;5.94;95.60
10948;BME280;5526;42.070;24.752;2023-01-09T09:50:49;99294.22;;;5.84;95.86
10948;BME280;5526;42.070;24.752;2023-01-09T09:53:25;99294.59;;;6.05;96.22
10948;BME280;5526;42.070;24.752;2023-01-09T09:55:53;99295.31;;;5.70;99.79
10948;BME280;5526;42.070;24.752;2023-01-09T09:58:27;99252.56;;;5.46;100.00
10948;BME280;5526;42.070;24.752;2023-01-09T10:00:56;99278.47;;;5.66;100.00
10948;BME280;5526;42.070;24.752;2023-01-09T10:03:27;99274.97;;;5.96;100.00
10948;BME280;5526;42.070;24.752;2023-01-09T10:05:59;99267.88;;;5.85;100.00
10948;BME280;5526;42.070;24.752;2023-01-09T10:08:37;99269.41;;;5.93;100.00
10948;BME280;5526;42.070;24.752;2023-01-09T10:11:09;99268.25;;;5.64;100.00
10948;BME280;5526;42.070;24.752;2023-01-09T10:13:40;99267.50;;;5.82;100.00
10948;BME280;5526;42.070;24.752;2023-01-09T10:16:33;99260.00;;;5.43;100.00
10948;BME280;5526;42.070;24.752;2023-01-09T10:19:13;99259.47;;;5.34;100.00
10948;BME280;5526;42.070;24.752;2023-01-09T10:21:55;99269.84;;;5.16;100.00
10948;BME280;5526;42.070;24.752;2023-01-09T10:24:37;99252.75;;;5.20;100.00
10948;BME280;5526;42.070;24.752;2023-01-09T10:27:16;99245.09;;;5.25;100.00
10948;BME280;5526;42.070;24.752;2023-01-09T10:29:54;99255.75;;;4.99;100.00
10948;BME280;5526;42.070;24.752;2023-01-09T10:32:33;99247.97;;;4.86;100.00
10948;BME280;5526;42.070;24.752;2023-01-09T10:35:18;99237.75;;;4.85;100.00
10948;BME280;5526;42.070;24.752;2023-01-09T10:37:52;99231.28;;;5.18;100.00
10948;BME280;5526;42.070;24.752;2023-01-09T10:40:24;99238.66;;;5.03;100.00
10948;BME280;5526;42.070;24.752;2023-01-09T10:42:59;99238.31;;;4.93;100.00
10948;BME280;5526;42.070;24.752;2023-01-09T10:45:31;99233.19;;;5.05;100.00
10948;BME280;5526;42.070;24.752;2023-01-09T10:48:03;99223.75;;;4.79;100.00
10948;BME280;5526;42.070;24.752;2023-01-09T10:50:33;99227.50;;;4.58;100.00
10948;BME280;5526;42.070;24.752;2023-01-09T10:53:14;99230.41;;;4.75;100.00
10948;BME280;5526;42.070;24.752;2023-01-09T10:55:44;99231.03;;;4.71;100.00
10948;BME280;5526;42.070;24.752;2023-01-09T10:58:13;99223.03;;;4.65;100.00
10948;BME280;5526;42.070;24.752;2023-01-09T11:00:41;99216.47;;;4.88;100.00
10948;BME280;5526;42.070;24.752;2023-01-09T11:03:11;99220.09;;;4.87;100.00
10948;BME280;5526;42.070;24.752;2023-01-09T11:05:39;99214.59;;;4.70;100.00
10948;BME280;5526;42.070;24.752;2023-01-09T11:08:21;99226.97;;;4.81;100.00
10948;BME280;5526;42.070;24.752;2023-01-09T11:10:51;99216.16;;;4.78;100.00
10948;BME280;5526;42.070;24.752;2023-01-09T11:13:20;99217.19;;;4.70;100.00
10948;BME280;5526;42.070;24.752;2023-01-09T11:16:05;99201.03;;;4.86;100.00
10948;BME280;5526;42.070;24.752;2023-01-09T11:18:34;99226.09;;;4.94;100.00
10948;BME280;5526;42.070;24.752;2023-01-09T11:21:31;99218.00;;;5.02;100.00
10948;BME280;5526;42.070;24.752;2023-01-09T11:24:26;99208.06;;;5.17;100.00
10948;BME280;5526;42.070;24.752;2023-01-09T11:27:19;99205.34;;;5.48;100.00
10948;BME280;5526;42.070;24.752;2023-01-09T11:30:21;99199.09;;;5.31;100.00
10948;BME280;5526;42.070;24.752;2023-01-09T11:32:51;99193.03;;;5.55;100.00
10948;BME280;5526;42.070;24.752;2023-01-09T11:35:22;99193.97;;;5.42;100.00
10948;BME280;5526;42.070;24.752;2023-01-09T11:38:00;99173.09;;;5.42;100.00
10948;BME280;5526;42.070;24.752;2023-01-09T11:40:32;99179.69;;;5.45;100.00
10948;BME280;5526;42.070;24.752;2023-01-09T11:43:14;99163.66;;;5.41;100.00
10948;BME280;5526;42.070;24.752;2023-01-09T11:45:46;99166.84;;;5.43;100.00
10948;BME280;5526;42.070;24.752;2023-01-09T11:48:32;99151.16;;;5.25;100.00
10948;BME280;5526;42.070;24.752;2023-01-09T11:51:02;99136.78;;;5.41;100.00
10948;BME280;5526;42.070;24.752;2023-01-09T11:53:42;99149.91;;;5.88;100.00
10948;BME280;5526;42.070;24.752;2023-01-09T11:56:13;99133.34;;;5.76;100.00
10948;BME280;5526;42.070;24.752;2023-01-09T11:58:42;99134.69;;;5.85;100.00
10948;BME280;5526;42.070;24.752;2023-01-09T12:01:36;99139.16;;;5.96;100.00
10948;BME280;5526;42.070;24.752;2023-01-09T12:04:18;99125.66;;;5.99;100.00
10948;BME280;5526;42.070;24.752;2023-01-09T12:07:00;99122.50;;;6.38;100.00
10948;BME280;5526;42.070;24.752;2023-01-09T12:09:40;99122.47;;;6.56;100.00
10948;BME280;5526;42.070;24.752;2023-01-09T12:12:17;99118.22;;;6.55;100.00
10948;BME280;5526;42.070;24.752;2023-01-09T12:15:02;99119.97;;;6.73;100.00
10948;BME280;5526;42.070;24.752;2023-01-09T12:17:43;99123.28;;;6.80;100.00
10948;BME280;5526;42.070;24.752;2023-01-09T12:20:26;99124.25;;;6.56;100.00
10948;BME280;5526;42.070;24.752;2023-01-09T12:23:04;99125.72;;;7.78;100.00
10948;BME280;5526;42.070;24.752;2023-01-09T12:25:46;99117.59;;;7.17;100.00
10948;BME280;5526;42.070;24.752;2023-01-09T12:28:47;99103.53;;;7.18;100.00
10948;BME280;5526;42.070;24.752;2023-01-09T12:31:28;99098.63;;;7.22;100.00
10948;BME280;5526;42.070;24.752;2023-01-09T12:34:08;99099.41;;;7.22;100.00
10948;BME280;5526;42.070;24.752;2023-01-09T12:36:48;99087.44;;;7.38;100.00
10948;BME280;5526;42.070;24.752;2023-01-09T12:39:28;99077.41;;;7.46;100.00
10948;BME280;5526;42.070;24.752;2023-01-09T12:42:07;99083.25;;;7.37;100.00
10948;BME280;5526;42.070;24.752;2023-01-09T12:44:50;99082.44;;;7.36;100.00
10948;BME280;5526;42.070;24.752;2023-01-09T12:47:51;99080.72;;;7.42;100.00
10948;BME280;5526;42.070;24.752;2023-01-09T12:50:38;99080.50;;;7.43;100.00
10948;BME280;5526;42.070;24.752;2023-01-09T12:53:15;99073.84;;;7.52;100.00
10948;BME280;5526;42.070;24.752;2023-01-09T12:55:49;99060.88;;;7.57;100.00
10948;BME280;5526;42.070;24.752;2023-01-09T12:58:26;99058.81;;;7.59;100.00
10948;BME280;5526;42.070;24.752;2023-01-09T13:00:57;99059.03;;;7.69;100.00
10948;BME280;5526;42.070;24.752;2023-01-09T13:03:30;99049.66;;;7.73;100.00
10948;BME280;5526;42.070;24.752;2023-01-09T13:06:02;99053.28;;;7.72;100.00
10948;BME280;5526;42.070;24.752;2023-01-09T13:08:36;99052.97;;;7.69;100.00
10948;BME280;5526;42.070;24.752;2023-01-09T13:11:08;99052.91;;;7.80;100.00
10948;BME280;5526;42.070;24.752;2023-01-09T13:13:43;99046.94;;;7.68;100.00
10948;BME280;5526;42.070;24.752;2023-01-09T13:16:16;99033.66;;;7.58;100.00
10948;BME280;5526;42.070;24.752;2023-01-09T13:18:47;99046.75;;;7.58;100.00
10948;BME280;5526;42.070;24.752;2023-01-09T13:21:16;99042.91;;;7.49;100.00
10948;BME280;5526;42.070;24.752;2023-01-09T13:23:47;99044.81;;;7.65;100.00
10948;BME280;5526;42.070;24.752;2023-01-09T13:26:20;99054.00;;;7.68;100.00
10948;BME280;5526;42.070;24.752;2023-01-09T13:28:51;99053.44;;;7.66;100.00
10948;BME280;5526;42.070;24.752;2023-01-09T13:34:14;99025.59;;;7.48;100.00
10948;BME280;5526;42.070;24.752;2023-01-09T13:36:48;99056.06;;;7.66;100.00
10948;BME280;5526;42.070;24.752;2023-01-09T13:39:21;99057.41;;;7.68;100.00
10948;BME280;5526;42.070;24.752;2023-01-09T13:41:52;99058.66;;;7.66;100.00